Huvudsida
METAR-TAF:

METAR-TAF

Flygplatser :

Zaragoza Airport

Zaragoza, Spanien

latitud: 41-40N, longitud: 001-01W, höjd: 263 m

Aktuellt väderrapport

Denna rapport gjordes för 44 minuter sedan, klockan 22:00 UTC
Vind 9 kt från sydost
Temperatur 21°C
Fuktighet 49%
Tryck 1026 hPa
Sikt 10 km eller mer
Inga moln under 1 500 m eller inga cumulonimbus

METAR: LEZG 272200Z 13009KT CAVOK 21/10 Q1026

Tid: 00:44 (22:44 UTC)

Väderprognos

Denna rapport gjordes för 5 timmar och 44 minuter sedan, klockan 17:00 UTC
Prognos gäller från 27 kl. 18 UTC till 28 kl. 18 UTC
Vind 9 kt från sydost
Sikt 10 km eller mer
Få moln på en höjd av 5000 ft

TAF: LEZG 271700Z 2718/2818 13009KT 9999 FEW050 TX31/2813Z TN17/2806Z

Aktuella väderrapporter och prognoser från 4000 flygplatser (METAR- och TAF-rapporter).

De tillgängliga stationerna syns som gula och röda prickar på kartan.

För musen över prickarna för att se namnen på stationerna.

Klicka sedan för att få väderrapporter och prognoser.

För att ändra kartan: Klicka på de gröna knapparna med ett svart kors på för att zooma in; den gröna knappen med ett streck på för att zooma ut; eller på de gröna pilarna för angränsande kartor.


METAR-TAF: